OXFORD AIRPORT | Local Weather
17097
page-template-default,page,page-id-17097,ajax_fade,page_not_loaded,,hide_top_bar_on_mobile_header,qode-child-theme-ver-1.0.0,qode-theme-ver-10.0,wpb-js-composer js-comp-ver-4.11.2.1,vc_responsive
 

LOCAL WEATHER

METAR & TAF for EGTK Oxford

Available data for EGTK from the past hour
OXFORD
Metar
EGTK 231750Z 08013KT 9999 OVC029 02/M03 Q1019

17:50 UTC

Wind: 80° 13kt

Visibility: 9999 m

Sky: OVC 2900 ft

Temp: 2 deg C / 35.6 deg F

Dewpoint: -3 deg C / 26.6 deg F

Pressure: 1019 hPa

TAF
TAF EGTK 231656Z 2318/2322 09012KT 9999 FEW020 PROB30 TEMPO 2318/2321 8000